createdAt,value
2022-11-05T00:00:17.877Z,52.36
2022-11-05T00:03:02.656Z,52.28
2022-11-05T00:05:47.491Z,52.25
2022-11-05T00:08:32.313Z,52.54
2022-11-05T00:10:58.895Z,52.18
2022-11-05T00:13:44.058Z,52.41
2022-11-05T00:16:28.916Z,52.48
2022-11-05T00:19:07.056Z,53.29
2022-11-05T00:21:53.695Z,52.33
2022-11-05T00:24:39.337Z,52.45
2022-11-05T00:27:06.268Z,52.63
2022-11-05T00:29:32.816Z,52.98
2022-11-05T00:31:59.387Z,53.58
2022-11-05T00:34:25.993Z,53.26
2022-11-05T00:36:52.617Z,53.43
2022-11-05T00:39:19.150Z,53.46
2022-11-05T00:42:05.627Z,53.67
2022-11-05T00:44:51.077Z,53.25
2022-11-05T00:47:36.257Z,53.58
2022-11-05T00:50:03.086Z,53.41
2022-11-05T00:52:48.081Z,53.32
2022-11-05T00:55:14.686Z,53.81
2022-11-05T00:57:41.166Z,53.14
2022-11-05T01:00:08.352Z,53.80
2022-11-05T01:02:35.008Z,53.76
2022-11-05T01:05:01.556Z,54.20
2022-11-05T01:07:28.069Z,53.98
2022-11-05T01:09:54.639Z,54.04
2022-11-05T01:12:21.222Z,54.17
2022-11-05T01:14:47.745Z,54.30
2022-11-05T01:17:14.272Z,54.49
2022-11-05T01:19:40.887Z,54.57
2022-11-05T01:22:07.401Z,54.08
2022-11-05T01:24:33.902Z,53.97
2022-11-05T01:27:00.442Z,54.41
2022-11-05T01:29:26.963Z,53.84
2022-11-05T01:31:53.496Z,53.88
2022-11-05T01:34:20.022Z,53.02
2022-11-05T01:36:46.533Z,52.89
2022-11-05T01:39:13.320Z,52.14
2022-11-05T01:41:39.800Z,51.80
2022-11-05T01:44:06.322Z,51.98
2022-11-05T01:46:42.039Z,51.27
2022-11-05T01:49:14.546Z,51.71
2022-11-05T01:51:42.020Z,51.03
2022-11-05T01:54:10.599Z,51.28
2022-11-05T01:56:47.491Z,51.15
2022-11-05T01:59:23.453Z,50.94
2022-11-05T02:01:50.591Z,51.26
2022-11-05T02:04:26.945Z,50.91
2022-11-05T02:06:53.502Z,51.05
2022-11-05T02:09:30.230Z,51.00
2022-11-05T02:11:57.287Z,48.90
2022-11-05T02:14:23.808Z,48.34
2022-11-05T02:16:53.321Z,47.21
2022-11-05T02:19:25.772Z,45.79
2022-11-05T02:22:29.345Z,45.07
2022-11-05T02:25:14.627Z,45.00
2022-11-05T02:27:44.069Z,45.14
2022-11-05T02:30:25.725Z,44.22
2022-11-05T02:33:33.762Z,45.09
2022-11-05T02:36:17.784Z,45.98
2022-11-05T02:39:02.207Z,46.14
2022-11-05T02:41:53.667Z,46.35
2022-11-05T02:44:41.713Z,46.88
2022-11-05T02:47:16.987Z,47.76
2022-11-05T02:50:00.305Z,47.73
2022-11-05T02:52:50.064Z,48.12
2022-11-05T02:55:23.917Z,48.36
2022-11-05T02:57:50.497Z,49.01
2022-11-05T03:00:45.239Z,49.31
2022-11-05T03:03:16.723Z,49.39
2022-11-05T03:06:20.316Z,49.64
2022-11-05T03:09:20.402Z,50.23
2022-11-05T03:12:06.032Z,50.42
2022-11-05T03:14:39.568Z,50.06
2022-11-05T03:17:14.553Z,50.32
2022-11-05T03:19:54.288Z,50.43
2022-11-05T03:22:35.484Z,50.85
2022-11-05T03:25:05.700Z,51.16
2022-11-05T03:27:35.228Z,51.13
2022-11-05T03:30:09.574Z,50.91
2022-11-05T03:32:39.236Z,51.17
2022-11-05T03:35:13.233Z,51.44
2022-11-05T03:37:41.644Z,50.57
2022-11-05T03:40:09.703Z,51.17
2022-11-05T03:42:39.014Z,51.26
2022-11-05T03:45:10.022Z,51.77
2022-11-05T03:47:39.701Z,52.00
2022-11-05T03:50:23.123Z,51.75
2022-11-05T03:52:54.477Z,51.55
2022-11-05T03:55:25.096Z,52.00
2022-11-05T03:57:54.084Z,51.90
2022-11-05T04:00:21.749Z,52.24
2022-11-05T04:02:48.350Z,51.82
2022-11-05T04:05:15.015Z,52.06
2022-11-05T04:08:01.024Z,52.09
2022-11-05T04:10:45.864Z,52.54
2022-11-05T04:13:24.161Z,52.80
2022-11-05T04:16:13.007Z,52.23
2022-11-05T04:18:39.948Z,52.75
2022-11-05T04:21:25.714Z,52.59
2022-11-05T04:24:10.126Z,52.54
2022-11-05T04:26:42.018Z,52.63
2022-11-05T04:29:28.799Z,52.68
2022-11-05T04:31:55.323Z,52.45
2022-11-05T04:34:24.766Z,53.04
2022-11-05T04:36:52.382Z,52.78
2022-11-05T04:39:19.974Z,52.63
2022-11-05T04:41:49.860Z,52.62
2022-11-05T04:44:16.819Z,52.81
2022-11-05T04:46:43.496Z,52.65
2022-11-05T04:49:09.984Z,52.76
2022-11-05T04:51:36.462Z,52.57
2022-11-05T04:54:03.454Z,52.74
2022-11-05T04:56:29.968Z,52.36
2022-11-05T04:58:56.465Z,52.44
2022-11-05T05:01:23.670Z,52.38
2022-11-05T05:03:51.288Z,51.85
2022-11-05T05:06:18.564Z,51.94
2022-11-05T05:08:46.817Z,51.65
2022-11-05T05:11:14.407Z,52.23
2022-11-05T05:13:40.915Z,52.21
2022-11-05T05:16:09.363Z,52.20
2022-11-05T05:18:35.975Z,52.35
2022-11-05T05:21:21.255Z,51.99
2022-11-05T05:23:48.353Z,52.25
2022-11-05T05:26:16.051Z,52.45
2022-11-05T05:28:42.588Z,52.19
2022-11-05T05:31:09.219Z,52.16
2022-11-05T05:33:35.973Z,52.08
2022-11-05T05:36:07.031Z,52.21
2022-11-05T05:38:36.569Z,51.94
2022-11-05T05:41:03.155Z,52.34
2022-11-05T05:43:33.646Z,52.31
2022-11-05T05:46:08.067Z,52.05
2022-11-05T05:48:34.885Z,52.26
2022-11-05T05:51:02.764Z,52.23
2022-11-05T05:53:29.616Z,52.59
2022-11-05T05:55:56.898Z,52.70
2022-11-05T05:58:24.188Z,52.88
2022-11-05T06:00:50.647Z,52.75
2022-11-05T06:03:17.229Z,52.76
2022-11-05T06:05:43.723Z,52.35
2022-11-05T06:08:10.229Z,52.61
2022-11-05T06:10:36.818Z,52.75
2022-11-05T06:13:03.356Z,52.47
2022-11-05T06:15:35.521Z,51.85
2022-11-05T06:18:02.433Z,51.76
2022-11-05T06:20:28.910Z,52.31
2022-11-05T06:22:56.508Z,51.79
2022-11-05T06:25:23.787Z,51.74
2022-11-05T06:27:50.339Z,52.09
2022-11-05T06:30:17.696Z,51.94
2022-11-05T06:32:44.691Z,51.52
2022-11-05T06:35:11.236Z,51.56
2022-11-05T06:37:37.716Z,51.18
2022-11-05T06:40:04.593Z,50.98
2022-11-05T06:42:31.084Z,51.00
2022-11-05T06:44:57.707Z,50.82
2022-11-05T06:47:24.238Z,50.38
2022-11-05T06:49:50.715Z,50.24
2022-11-05T06:52:17.230Z,50.08
2022-11-05T06:54:44.032Z,49.94
2022-11-05T06:57:11.872Z,49.88
2022-11-05T06:59:39.296Z,49.01
2022-11-05T07:02:06.643Z,49.78
2022-11-05T07:04:33.285Z,49.46
2022-11-05T07:07:00.880Z,49.17
2022-11-05T07:09:28.791Z,48.91
2022-11-05T07:11:55.709Z,49.63
2022-11-05T07:14:22.243Z,50.73
2022-11-05T07:16:48.784Z,50.21
2022-11-05T07:19:15.315Z,49.68
2022-11-05T07:21:41.808Z,49.66
2022-11-05T07:24:08.485Z,49.44
2022-11-05T07:26:34.991Z,49.66
2022-11-05T07:29:01.553Z,49.65
2022-11-05T07:31:28.144Z,49.13
2022-11-05T07:33:54.712Z,49.18
2022-11-05T07:36:21.175Z,48.88
2022-11-05T07:38:47.660Z,49.11
2022-11-05T07:41:14.152Z,48.97
2022-11-05T07:43:40.628Z,48.65
2022-11-05T07:46:12.660Z,49.04
2022-11-05T07:48:40.322Z,49.12
2022-11-05T07:51:06.841Z,49.40
2022-11-05T07:53:33.383Z,49.35
2022-11-05T07:55:59.999Z,48.93
2022-11-05T07:58:26.643Z,49.03
2022-11-05T08:00:53.291Z,49.22
2022-11-05T08:03:20.551Z,49.41
2022-11-05T08:05:47.914Z,48.55
2022-11-05T08:08:16.587Z,47.96
2022-11-05T08:10:43.264Z,48.35
2022-11-05T08:13:10.755Z,48.27
2022-11-05T08:15:37.743Z,48.00
2022-11-05T08:18:12.654Z,47.57
2022-11-05T08:20:40.571Z,47.00
2022-11-05T08:23:07.652Z,46.52
2022-11-05T08:25:34.603Z,46.69
2022-11-05T08:28:06.688Z,46.19
2022-11-05T08:30:34.073Z,46.61
2022-11-05T08:33:03.896Z,46.26
2022-11-05T08:35:30.811Z,46.32
2022-11-05T08:37:59.067Z,46.48
2022-11-05T08:40:26.429Z,46.58
2022-11-05T08:42:53.417Z,46.36
2022-11-05T08:45:19.993Z,46.58
2022-11-05T08:47:46.628Z,45.95
2022-11-05T08:50:13.263Z,45.84
2022-11-05T08:52:40.697Z,46.35
2022-11-05T08:55:07.851Z,46.57
2022-11-05T08:57:34.391Z,46.27
2022-11-05T09:00:01.056Z,46.45
2022-11-05T09:02:27.843Z,46.52
2022-11-05T09:04:54.434Z,46.10
2022-11-05T09:07:22.852Z,46.55
2022-11-05T09:09:49.460Z,46.27
2022-11-05T09:12:16.078Z,46.78
2022-11-05T09:14:42.669Z,46.45
2022-11-05T09:17:15.965Z,46.55
2022-11-05T09:19:42.598Z,46.60
2022-11-05T09:22:12.567Z,47.06
2022-11-05T09:24:39.974Z,46.67
2022-11-05T09:27:10.195Z,46.83
2022-11-05T09:29:36.915Z,46.61
2022-11-05T09:32:03.633Z,46.16
2022-11-05T09:34:30.188Z,46.67
2022-11-05T09:36:57.229Z,45.89
2022-11-05T09:39:24.429Z,45.56
2022-11-05T09:41:53.198Z,45.67
2022-11-05T09:44:28.245Z,45.78
2022-11-05T09:47:02.118Z,45.31
2022-11-05T09:49:39.743Z,44.92
2022-11-05T09:52:12.498Z,44.70
2022-11-05T09:54:40.093Z,44.26
2022-11-05T09:57:08.525Z,42.35
2022-11-05T09:59:42.003Z,41.79
2022-11-05T10:02:16.298Z,41.24
2022-11-05T10:04:43.768Z,41.38
2022-11-05T10:07:15.901Z,40.03
2022-11-05T10:09:47.648Z,37.05
2022-11-05T10:12:24.491Z,37.68
2022-11-05T10:15:03.583Z,37.65
2022-11-05T10:17:33.739Z,38.00
2022-11-05T10:20:10.633Z,37.55
2022-11-05T10:22:37.249Z,37.96
2022-11-05T10:25:16.563Z,36.74
2022-11-05T10:27:48.080Z,36.75
2022-11-05T10:30:15.116Z,37.00
2022-11-05T10:32:42.888Z,36.76
2022-11-05T10:35:16.640Z,36.48
2022-11-05T10:37:43.129Z,36.60
2022-11-05T10:40:33.619Z,36.15
2022-11-05T10:43:08.126Z,36.74
2022-11-05T10:45:47.170Z,37.08
2022-11-05T10:48:43.464Z,37.34
2022-11-05T10:51:10.577Z,38.24
2022-11-05T10:53:39.075Z,38.91
2022-11-05T10:56:43.204Z,40.11
2022-11-05T10:59:25.045Z,40.91
2022-11-05T11:02:08.552Z,41.33
2022-11-05T11:04:38.062Z,41.67
2022-11-05T11:07:06.304Z,41.70
2022-11-05T11:09:35.988Z,41.86
2022-11-05T11:12:06.332Z,41.79
2022-11-05T11:14:34.980Z,41.97
2022-11-05T11:17:15.800Z,41.86
2022-11-05T11:19:42.183Z,41.86
2022-11-05T11:22:15.675Z,42.01
2022-11-05T11:24:48.314Z,41.73
2022-11-05T11:27:17.857Z,42.00
2022-11-05T11:29:49.802Z,41.68
2022-11-05T11:32:19.489Z,41.40
2022-11-05T11:34:50.228Z,40.90
2022-11-05T11:37:23.605Z,40.93
2022-11-05T11:40:05.995Z,40.21
2022-11-05T11:42:37.696Z,39.69
2022-11-05T11:45:07.748Z,39.84
2022-11-05T11:47:34.426Z,39.15
2022-11-05T11:50:02.180Z,38.46
2022-11-05T11:52:30.711Z,36.81
2022-11-05T11:55:09.320Z,36.99
2022-11-05T11:57:43.881Z,34.55
2022-11-05T12:00:10.962Z,34.47
2022-11-05T12:03:18.291Z,34.48
2022-11-05T12:05:48.236Z,34.20
2022-11-05T12:08:44.355Z,32.54
2022-11-05T12:11:21.476Z,31.29
2022-11-05T12:13:55.837Z,30.46
2022-11-05T12:16:25.953Z,31.13
2022-11-05T12:19:00.375Z,31.56
2022-11-05T12:21:52.506Z,30.93
2022-11-05T12:24:36.018Z,31.79
2022-11-05T12:27:33.820Z,31.43
2022-11-05T12:30:20.517Z,30.97
2022-11-05T12:33:05.320Z,30.83
2022-11-05T12:35:56.496Z,31.24
2022-11-05T12:38:54.428Z,30.64
2022-11-05T12:41:41.209Z,30.17
2022-11-05T12:44:13.476Z,30.29
2022-11-05T12:46:58.463Z,29.20
2022-11-05T12:49:43.704Z,28.16
2022-11-05T12:52:47.992Z,29.20
2022-11-05T12:55:18.632Z,27.43
2022-11-05T12:57:48.284Z,27.67
2022-11-05T13:00:23.442Z,27.03
2022-11-05T13:03:08.163Z,27.27
2022-11-05T13:05:37.807Z,25.96
2022-11-05T13:08:14.614Z,24.74
2022-11-05T13:10:44.836Z,23.86
2022-11-05T13:13:29.232Z,21.38
2022-11-05T13:16:11.798Z,19.59
2022-11-05T13:18:48.755Z,18.55
2022-11-05T13:21:16.169Z,17.82
2022-11-05T13:23:49.064Z,16.38
2022-11-05T13:26:24.849Z,15.73
2022-11-05T13:28:57.466Z,15.67
2022-11-05T13:31:31.031Z,15.66
2022-11-05T13:33:57.654Z,15.84
2022-11-05T13:36:46.965Z,15.38
2022-11-05T13:39:28.300Z,15.42
2022-11-05T13:42:06.592Z,18.33
2022-11-05T13:44:46.579Z,20.89
2022-11-05T13:47:20.428Z,22.28
2022-11-05T13:50:01.331Z,23.84
2022-11-05T13:52:51.345Z,24.61
2022-11-05T13:55:36.533Z,25.07
2022-11-05T13:58:15.347Z,25.51
2022-11-05T14:00:57.095Z,26.41
2022-11-05T14:03:23.778Z,26.80
2022-11-05T14:06:04.803Z,26.33
2022-11-05T14:08:32.072Z,26.86
2022-11-05T14:11:02.192Z,27.74
2022-11-05T14:13:38.005Z,28.42
2022-11-05T14:16:06.861Z,28.51
2022-11-05T14:18:45.966Z,28.06
2022-11-05T14:21:27.867Z,27.93
2022-11-05T14:23:59.521Z,27.46
2022-11-05T14:26:32.083Z,26.88
2022-11-05T14:28:58.609Z,26.61
2022-11-05T14:31:54.350Z,27.27
2022-11-05T14:34:23.801Z,26.71
2022-11-05T14:37:17.926Z,26.48
2022-11-05T14:39:45.577Z,25.96
2022-11-05T14:42:15.195Z,26.08
2022-11-05T14:44:57.038Z,25.72
2022-11-05T14:47:26.580Z,25.07
2022-11-05T14:49:58.543Z,22.31
2022-11-05T14:52:25.178Z,15.39
2022-11-05T14:54:54.249Z,12.83
2022-11-05T14:57:42.590Z,12.96
2022-11-05T15:00:40.716Z,12.72
2022-11-05T15:03:30.850Z,13.83
2022-11-05T15:06:05.665Z,12.98
2022-11-05T15:08:35.367Z,13.22
2022-11-05T15:11:21.946Z,13.32
2022-11-05T15:13:54.579Z,13.62
2022-11-05T15:16:26.168Z,13.86
2022-11-05T15:18:54.058Z,14.39
2022-11-05T15:21:21.122Z,14.13
2022-11-05T15:23:50.058Z,14.27
2022-11-05T15:26:41.500Z,14.58
2022-11-05T15:29:19.816Z,14.57
2022-11-05T15:31:46.728Z,14.57
2022-11-05T15:34:16.487Z,16.07
2022-11-05T15:37:13.502Z,16.49
2022-11-05T15:39:42.343Z,17.28
2022-11-05T15:42:18.953Z,17.07
2022-11-05T15:44:50.525Z,17.62
2022-11-05T15:47:25.559Z,17.81
2022-11-05T15:49:58.280Z,17.91
2022-11-05T15:52:33.662Z,19.87
2022-11-05T15:55:12.469Z,22.81
2022-11-05T15:57:50.281Z,24.23
2022-11-05T16:00:20.675Z,25.04
2022-11-05T16:03:13.964Z,25.33
2022-11-05T16:05:45.537Z,25.56
2022-11-05T16:08:17.080Z,26.24
2022-11-05T16:10:48.003Z,25.91
2022-11-05T16:13:37.042Z,25.85
2022-11-05T16:16:14.240Z,26.19
2022-11-05T16:18:41.866Z,26.27
2022-11-05T16:21:14.083Z,26.72
2022-11-05T16:23:44.741Z,26.94
2022-11-05T16:27:01.083Z,26.83
2022-11-05T16:29:29.236Z,27.60
2022-11-05T16:31:57.178Z,27.47
2022-11-05T16:34:27.338Z,27.80
2022-11-05T16:36:56.070Z,28.12
2022-11-05T16:39:22.684Z,28.43
2022-11-05T16:41:49.579Z,28.75
2022-11-05T16:44:16.182Z,28.90
2022-11-05T16:46:46.694Z,29.34
2022-11-05T16:49:13.617Z,29.51
2022-11-05T16:51:40.644Z,29.83
2022-11-05T16:54:07.417Z,29.96
2022-11-05T16:56:34.161Z,30.53
2022-11-05T16:59:01.019Z,30.93
2022-11-05T17:01:28.004Z,31.29
2022-11-05T17:03:54.895Z,31.84
2022-11-05T17:06:21.889Z,32.13
2022-11-05T17:08:48.668Z,32.95
2022-11-05T17:11:17.451Z,32.62
2022-11-05T17:13:44.464Z,33.17
2022-11-05T17:16:13.047Z,33.33
2022-11-05T17:18:40.554Z,33.55
2022-11-05T17:21:08.314Z,33.49
2022-11-05T17:23:35.459Z,34.24
2022-11-05T17:26:04.643Z,34.93
2022-11-05T17:28:31.345Z,34.82
2022-11-05T17:31:02.088Z,34.71
2022-11-05T17:33:28.931Z,34.77
2022-11-05T17:35:56.150Z,34.87
2022-11-05T17:38:23.724Z,35.05
2022-11-05T17:40:50.621Z,34.94
2022-11-05T17:43:17.709Z,35.79
2022-11-05T17:45:47.153Z,35.73
2022-11-05T17:48:14.679Z,35.83
2022-11-05T17:50:46.196Z,35.51
2022-11-05T17:53:14.219Z,35.22
2022-11-05T17:55:42.190Z,35.85
2022-11-05T17:58:08.840Z,35.81
2022-11-05T18:00:35.860Z,35.78
2022-11-05T18:03:02.538Z,35.61
2022-11-05T18:05:30.880Z,35.75
2022-11-05T18:07:58.021Z,36.30
2022-11-05T18:10:24.882Z,36.26
2022-11-05T18:12:51.527Z,36.05
2022-11-05T18:15:18.353Z,36.07
2022-11-05T18:17:46.179Z,36.72
2022-11-05T18:20:18.856Z,36.49
2022-11-05T18:22:48.438Z,36.89
2022-11-05T18:25:14.998Z,36.72
2022-11-05T18:27:41.605Z,37.00
2022-11-05T18:30:09.879Z,36.59
2022-11-05T18:32:36.795Z,35.83
2022-11-05T18:35:03.613Z,36.36
2022-11-05T18:37:30.217Z,36.55
2022-11-05T18:39:56.852Z,36.03
2022-11-05T18:42:23.497Z,36.09
2022-11-05T18:44:50.041Z,36.15
2022-11-05T18:47:16.748Z,36.37
2022-11-05T18:49:43.333Z,36.75
2022-11-05T18:52:09.879Z,36.89
2022-11-05T18:54:36.397Z,36.63
2022-11-05T18:57:03.120Z,37.09
2022-11-05T18:59:37.639Z,37.53
2022-11-05T19:02:06.091Z,37.77
2022-11-05T19:04:32.869Z,38.07
2022-11-05T19:07:04.388Z,38.13
2022-11-05T19:09:32.328Z,38.32
2022-11-05T19:11:58.889Z,38.38
2022-11-05T19:14:25.515Z,38.90
2022-11-05T19:16:52.057Z,39.15
2022-11-05T19:19:18.781Z,39.43
2022-11-05T19:21:45.545Z,39.80
2022-11-05T19:24:16.638Z,39.96
2022-11-05T19:26:43.646Z,40.57
2022-11-05T19:29:10.287Z,40.00
2022-11-05T19:31:36.996Z,40.17
2022-11-05T19:34:05.357Z,40.15
2022-11-05T19:36:32.861Z,40.45
2022-11-05T19:39:01.940Z,40.70
2022-11-05T19:41:28.758Z,40.19
2022-11-05T19:43:57.783Z,40.30
2022-11-05T19:46:25.069Z,39.95
2022-11-05T19:48:52.220Z,40.44
2022-11-05T19:51:23.848Z,40.36
2022-11-05T19:53:52.628Z,40.58
2022-11-05T19:56:24.629Z,40.80
2022-11-05T19:58:53.003Z,41.00
2022-11-05T20:01:21.324Z,40.83
2022-11-05T20:03:48.164Z,41.02
2022-11-05T20:06:20.173Z,41.34
2022-11-05T20:09:15.359Z,40.94
2022-11-05T20:11:36.840Z,41.62
2022-11-05T20:14:04.865Z,41.48
2022-11-05T20:16:38.118Z,41.54
2022-11-05T20:19:06.551Z,42.14
2022-11-05T20:21:33.724Z,42.30
2022-11-05T20:24:00.416Z,42.61
2022-11-05T20:26:27.415Z,43.18
2022-11-05T20:28:54.245Z,43.52
2022-11-05T20:31:21.085Z,43.87
2022-11-05T20:33:47.819Z,44.49
2022-11-05T20:36:16.628Z,44.61
2022-11-05T20:38:44.680Z,45.13
2022-11-05T20:41:13.052Z,45.16
2022-11-05T20:43:43.049Z,45.01
2022-11-05T20:46:13.327Z,45.65
2022-11-05T20:48:40.474Z,46.87
2022-11-05T20:51:09.335Z,47.55
2022-11-05T20:53:36.703Z,47.44
2022-11-05T20:56:07.887Z,48.04
2022-11-05T20:58:38.535Z,47.42
2022-11-05T21:01:05.733Z,47.77
2022-11-05T21:03:32.569Z,47.59
2022-11-05T21:06:04.021Z,47.15
2022-11-05T21:08:30.636Z,47.80
2022-11-05T21:10:57.240Z,47.68
2022-11-05T21:13:24.992Z,47.79
2022-11-05T21:15:53.636Z,47.09
2022-11-05T21:18:21.966Z,47.17
2022-11-05T21:20:48.612Z,47.35
2022-11-05T21:23:15.952Z,47.50
2022-11-05T21:25:43.466Z,47.04
2022-11-05T21:28:11.821Z,46.62
2022-11-05T21:30:41.449Z,46.72
2022-11-05T21:33:08.817Z,46.87
2022-11-05T21:35:40.039Z,46.68
2022-11-05T21:38:06.791Z,46.27
2022-11-05T21:40:33.331Z,46.73
2022-11-05T21:42:59.886Z,46.15
2022-11-05T21:45:26.441Z,46.77
2022-11-05T21:47:53.024Z,46.63
2022-11-05T21:50:21.929Z,46.41
2022-11-05T21:53:07.351Z,46.32
2022-11-05T21:55:52.566Z,46.10
2022-11-05T21:58:38.056Z,46.02
2022-11-05T22:01:04.648Z,45.29
2022-11-05T22:03:31.126Z,46.16
2022-11-05T22:05:57.627Z,46.42
2022-11-05T22:08:24.147Z,46.19
2022-11-05T22:10:50.631Z,46.43
2022-11-05T22:13:17.135Z,45.95
2022-11-05T22:15:43.681Z,46.28
2022-11-05T22:18:10.603Z,45.55
2022-11-05T22:20:39.353Z,45.61
2022-11-05T22:23:10.847Z,46.27
2022-11-05T22:25:37.932Z,45.72
2022-11-05T22:28:04.657Z,45.63
2022-11-05T22:30:35.361Z,46.43
2022-11-05T22:33:01.916Z,45.97
2022-11-05T22:35:29.037Z,46.20
2022-11-05T22:37:55.560Z,45.82
2022-11-05T22:40:23.992Z,46.11
2022-11-05T22:42:50.853Z,45.93
2022-11-05T22:45:17.382Z,46.24
2022-11-05T22:47:45.098Z,45.72
2022-11-05T22:50:11.724Z,46.14
2022-11-05T22:52:38.352Z,46.09
2022-11-05T22:55:06.147Z,46.30
2022-11-05T22:57:32.683Z,45.70
2022-11-05T22:59:59.248Z,46.53
2022-11-05T23:02:25.845Z,45.87
2022-11-05T23:04:52.538Z,46.05
2022-11-05T23:07:37.820Z,46.19
2022-11-05T23:10:23.125Z,46.25
2022-11-05T23:12:49.615Z,46.30
2022-11-05T23:15:34.680Z,46.09
2022-11-05T23:18:19.725Z,46.11
2022-11-05T23:21:04.809Z,45.67
2022-11-05T23:23:49.723Z,45.76
2022-11-05T23:26:34.822Z,45.70
2022-11-05T23:29:01.346Z,45.65
2022-11-05T23:31:46.321Z,45.65
2022-11-05T23:34:12.796Z,45.24
2022-11-05T23:36:57.453Z,45.17
2022-11-05T23:39:23.978Z,45.45
2022-11-05T23:42:09.042Z,46.04
2022-11-05T23:44:54.096Z,45.82
2022-11-05T23:47:39.085Z,46.62
2022-11-05T23:50:05.913Z,46.78
2022-11-05T23:52:32.533Z,46.17
2022-11-05T23:54:59.171Z,46.36
2022-11-05T23:57:25.685Z,47.04
2022-11-05T23:59:52.325Z,46.81
